sensor_id;sensor_type;location;lat;lon;timestamp;P1;durP1;ratioP1;P2;durP2;ratioP2
1839;SDS011;920;48.944;9.148;2022-10-17T00:00:15;3.80;;;3.40;;
1839;SDS011;920;48.944;9.148;2022-10-17T00:02:42;6.23;;;3.87;;
1839;SDS011;920;48.944;9.148;2022-10-17T00:05:09;3.93;;;3.47;;
1839;SDS011;920;48.944;9.148;2022-10-17T00:07:37;4.23;;;3.43;;
1839;SDS011;920;48.944;9.148;2022-10-17T00:10:04;5.10;;;4.20;;
1839;SDS011;920;48.944;9.148;2022-10-17T00:12:31;4.63;;;4.03;;
1839;SDS011;920;48.944;9.148;2022-10-17T00:14:58;4.90;;;4.00;;
1839;SDS011;920;48.944;9.148;2022-10-17T00:17:26;4.63;;;3.80;;
1839;SDS011;920;48.944;9.148;2022-10-17T00:19:52;6.00;;;3.53;;
1839;SDS011;920;48.944;9.148;2022-10-17T00:22:19;4.30;;;3.33;;
1839;SDS011;920;48.944;9.148;2022-10-17T00:24:45;3.90;;;3.20;;
1839;SDS011;920;48.944;9.148;2022-10-17T00:27:12;3.70;;;3.07;;
1839;SDS011;920;48.944;9.148;2022-10-17T00:29:38;6.83;;;4.20;;
1839;SDS011;920;48.944;9.148;2022-10-17T00:32:05;5.67;;;4.77;;
1839;SDS011;920;48.944;9.148;2022-10-17T00:34:33;7.20;;;5.10;;
1839;SDS011;920;48.944;9.148;2022-10-17T00:36:59;5.80;;;5.10;;
1839;SDS011;920;48.944;9.148;2022-10-17T00:39:26;8.47;;;6.37;;
1839;SDS011;920;48.944;9.148;2022-10-17T00:41:53;6.07;;;5.47;;
1839;SDS011;920;48.944;9.148;2022-10-17T00:47:26;7.40;;;5.93;;
1839;SDS011;920;48.944;9.148;2022-10-17T00:49:54;7.60;;;6.10;;
1839;SDS011;920;48.944;9.148;2022-10-17T00:52:22;7.57;;;6.57;;
1839;SDS011;920;48.944;9.148;2022-10-17T00:54:52;7.90;;;6.50;;
1839;SDS011;920;48.944;9.148;2022-10-17T00:57:21;6.33;;;5.53;;
1839;SDS011;920;48.944;9.148;2022-10-17T00:59:49;6.47;;;5.53;;
1839;SDS011;920;48.944;9.148;2022-10-17T01:02:17;8.07;;;5.83;;
1839;SDS011;920;48.944;9.148;2022-10-17T01:04:46;8.63;;;6.80;;
1839;SDS011;920;48.944;9.148;2022-10-17T01:07:15;9.23;;;5.30;;
1839;SDS011;920;48.944;9.148;2022-10-17T01:09:42;10.07;;;6.60;;
1839;SDS011;920;48.944;9.148;2022-10-17T01:12:11;7.80;;;5.97;;
1839;SDS011;920;48.944;9.148;2022-10-17T01:14:44;6.90;;;5.27;;
1839;SDS011;920;48.944;9.148;2022-10-17T01:17:19;10.17;;;6.27;;
1839;SDS011;920;48.944;9.148;2022-10-17T01:19:56;6.40;;;5.50;;
1839;SDS011;920;48.944;9.148;2022-10-17T01:22:38;7.17;;;6.10;;
1839;SDS011;920;48.944;9.148;2022-10-17T01:25:17;7.40;;;6.03;;
1839;SDS011;920;48.944;9.148;2022-10-17T01:27:55;10.00;;;6.93;;
1839;SDS011;920;48.944;9.148;2022-10-17T01:33:22;7.10;;;5.80;;
1839;SDS011;920;48.944;9.148;2022-10-17T01:35:54;8.57;;;6.07;;
1839;SDS011;920;48.944;9.148;2022-10-17T01:38:24;7.63;;;5.97;;
1839;SDS011;920;48.944;9.148;2022-10-17T01:40:54;11.10;;;7.17;;
1839;SDS011;920;48.944;9.148;2022-10-17T01:43:25;9.77;;;8.10;;
1839;SDS011;920;48.944;9.148;2022-10-17T01:45:56;9.87;;;8.07;;
1839;SDS011;920;48.944;9.148;2022-10-17T01:48:29;8.10;;;6.93;;
1839;SDS011;920;48.944;9.148;2022-10-17T01:51:00;11.50;;;8.77;;
1839;SDS011;920;48.944;9.148;2022-10-17T01:53:32;9.23;;;7.07;;
1839;SDS011;920;48.944;9.148;2022-10-17T01:55:59;8.90;;;7.60;;
1839;SDS011;920;48.944;9.148;2022-10-17T01:58:30;7.97;;;7.03;;
1839;SDS011;920;48.944;9.148;2022-10-17T02:01:00;9.03;;;6.17;;
1839;SDS011;920;48.944;9.148;2022-10-17T02:03:28;9.33;;;6.77;;
1839;SDS011;920;48.944;9.148;2022-10-17T02:05:56;7.27;;;6.23;;
1839;SDS011;920;48.944;9.148;2022-10-17T02:08:26;7.10;;;6.23;;
1839;SDS011;920;48.944;9.148;2022-10-17T02:10:55;6.93;;;6.07;;
1839;SDS011;920;48.944;9.148;2022-10-17T02:13:26;5.97;;;4.90;;
1839;SDS011;920;48.944;9.148;2022-10-17T02:16:07;6.97;;;4.70;;
1839;SDS011;920;48.944;9.148;2022-10-17T02:21:43;6.70;;;4.63;;
1839;SDS011;920;48.944;9.148;2022-10-17T02:24:13;10.03;;;4.93;;
1839;SDS011;920;48.944;9.148;2022-10-17T02:26:45;7.97;;;4.83;;
1839;SDS011;920;48.944;9.148;2022-10-17T02:29:15;6.57;;;4.17;;
1839;SDS011;920;48.944;9.148;2022-10-17T02:31:46;10.70;;;5.27;;
1839;SDS011;920;48.944;9.148;2022-10-17T02:34:15;5.57;;;4.80;;
1839;SDS011;920;48.944;9.148;2022-10-17T02:36:46;6.80;;;4.10;;
1839;SDS011;920;48.944;9.148;2022-10-17T02:39:15;7.23;;;4.20;;
1839;SDS011;920;48.944;9.148;2022-10-17T02:41:42;5.77;;;4.40;;
1839;SDS011;920;48.944;9.148;2022-10-17T02:44:09;6.00;;;4.33;;
1839;SDS011;920;48.944;9.148;2022-10-17T02:46:36;5.17;;;4.23;;
1839;SDS011;920;48.944;9.148;2022-10-17T02:49:06;5.00;;;3.80;;
1839;SDS011;920;48.944;9.148;2022-10-17T02:51:37;5.03;;;3.90;;
1839;SDS011;920;48.944;9.148;2022-10-17T02:54:08;5.93;;;4.20;;
1839;SDS011;920;48.944;9.148;2022-10-17T02:56:39;5.57;;;3.83;;
1839;SDS011;920;48.944;9.148;2022-10-17T02:59:08;6.30;;;4.03;;
1839;SDS011;920;48.944;9.148;2022-10-17T03:01:37;6.33;;;4.20;;
1839;SDS011;920;48.944;9.148;2022-10-17T03:04:07;8.37;;;3.77;;
1839;SDS011;920;48.944;9.148;2022-10-17T03:06:35;5.30;;;3.97;;
1839;SDS011;920;48.944;9.148;2022-10-17T03:09:02;6.23;;;4.27;;
1839;SDS011;920;48.944;9.148;2022-10-17T03:11:29;4.40;;;3.70;;
1839;SDS011;920;48.944;9.148;2022-10-17T03:13:55;4.70;;;3.30;;
1839;SDS011;920;48.944;9.148;2022-10-17T03:16:22;6.70;;;4.10;;
1839;SDS011;920;48.944;9.148;2022-10-17T03:18:49;5.57;;;3.37;;
1839;SDS011;920;48.944;9.148;2022-10-17T03:21:17;3.73;;;3.20;;
1839;SDS011;920;48.944;9.148;2022-10-17T03:23:43;5.73;;;3.90;;
1839;SDS011;920;48.944;9.148;2022-10-17T03:26:10;4.87;;;3.50;;
1839;SDS011;920;48.944;9.148;2022-10-17T03:28:37;7.13;;;3.80;;
1839;SDS011;920;48.944;9.148;2022-10-17T03:31:07;4.83;;;4.10;;
1839;SDS011;920;48.944;9.148;2022-10-17T03:33:34;3.37;;;3.00;;
1839;SDS011;920;48.944;9.148;2022-10-17T03:36:03;6.20;;;3.40;;
1839;SDS011;920;48.944;9.148;2022-10-17T03:38:32;4.80;;;3.30;;
1839;SDS011;920;48.944;9.148;2022-10-17T03:40:59;6.50;;;3.23;;
1839;SDS011;920;48.944;9.148;2022-10-17T03:43:25;3.90;;;3.30;;
1839;SDS011;920;48.944;9.148;2022-10-17T03:45:52;3.77;;;2.80;;
1839;SDS011;920;48.944;9.148;2022-10-17T03:48:19;10.97;;;3.17;;
1839;SDS011;920;48.944;9.148;2022-10-17T03:50:45;7.40;;;3.00;;
1839;SDS011;920;48.944;9.148;2022-10-17T03:53:13;6.40;;;3.37;;
1839;SDS011;920;48.944;9.148;2022-10-17T03:55:41;4.47;;;3.30;;
1839;SDS011;920;48.944;9.148;2022-10-17T03:58:07;3.80;;;3.43;;
1839;SDS011;920;48.944;9.148;2022-10-17T04:00:34;7.60;;;3.47;;
1839;SDS011;920;48.944;9.148;2022-10-17T04:03:01;5.40;;;3.10;;
1839;SDS011;920;48.944;9.148;2022-10-17T04:05:27;4.00;;;2.87;;
1839;SDS011;920;48.944;9.148;2022-10-17T04:07:54;6.50;;;3.10;;
1839;SDS011;920;48.944;9.148;2022-10-17T04:10:21;4.40;;;3.20;;
1839;SDS011;920;48.944;9.148;2022-10-17T04:12:49;4.13;;;3.23;;
1839;SDS011;920;48.944;9.148;2022-10-17T04:15:15;4.43;;;3.20;;
1839;SDS011;920;48.944;9.148;2022-10-17T04:17:42;7.47;;;3.60;;
1839;SDS011;920;48.944;9.148;2022-10-17T04:20:09;6.00;;;3.63;;
1839;SDS011;920;48.944;9.148;2022-10-17T04:22:36;5.10;;;3.57;;
1839;SDS011;920;48.944;9.148;2022-10-17T04:25:02;4.13;;;3.13;;
1839;SDS011;920;48.944;9.148;2022-10-17T04:27:29;4.60;;;3.80;;
1839;SDS011;920;48.944;9.148;2022-10-17T04:29:57;4.43;;;2.97;;
1839;SDS011;920;48.944;9.148;2022-10-17T04:32:24;3.83;;;3.17;;
1839;SDS011;920;48.944;9.148;2022-10-17T04:34:51;3.63;;;3.07;;
1839;SDS011;920;48.944;9.148;2022-10-17T04:37:17;3.70;;;2.70;;
1839;SDS011;920;48.944;9.148;2022-10-17T04:39:44;6.47;;;3.47;;
1839;SDS011;920;48.944;9.148;2022-10-17T04:42:10;5.53;;;3.07;;
1839;SDS011;920;48.944;9.148;2022-10-17T04:44:37;3.33;;;2.77;;
1839;SDS011;920;48.944;9.148;2022-10-17T04:47:05;4.90;;;3.03;;
1839;SDS011;920;48.944;9.148;2022-10-17T04:49:33;3.70;;;2.67;;
1839;SDS011;920;48.944;9.148;2022-10-17T04:51:59;6.07;;;3.10;;
1839;SDS011;920;48.944;9.148;2022-10-17T04:54:26;6.67;;;3.10;;
1839;SDS011;920;48.944;9.148;2022-10-17T04:56:52;5.50;;;3.27;;
1839;SDS011;920;48.944;9.148;2022-10-17T04:59:19;3.87;;;3.17;;
1839;SDS011;920;48.944;9.148;2022-10-17T05:01:47;3.97;;;2.70;;
1839;SDS011;920;48.944;9.148;2022-10-17T05:04:15;4.33;;;2.80;;
1839;SDS011;920;48.944;9.148;2022-10-17T05:06:42;3.20;;;2.87;;
1839;SDS011;920;48.944;9.148;2022-10-17T05:09:09;4.87;;;3.00;;
1839;SDS011;920;48.944;9.148;2022-10-17T05:11:36;6.73;;;2.87;;
1839;SDS011;920;48.944;9.148;2022-10-17T05:14:02;3.23;;;2.93;;
1839;SDS011;920;48.944;9.148;2022-10-17T05:16:30;6.50;;;3.90;;
1839;SDS011;920;48.944;9.148;2022-10-17T05:18:57;4.17;;;2.80;;
1839;SDS011;920;48.944;9.148;2022-10-17T05:21:26;3.20;;;2.37;;
1839;SDS011;920;48.944;9.148;2022-10-17T05:23:53;4.90;;;2.90;;
1839;SDS011;920;48.944;9.148;2022-10-17T05:26:20;4.40;;;2.97;;
1839;SDS011;920;48.944;9.148;2022-10-17T05:28:47;6.47;;;2.90;;
1839;SDS011;920;48.944;9.148;2022-10-17T05:31:16;5.77;;;3.40;;
1839;SDS011;920;48.944;9.148;2022-10-17T05:33:43;3.30;;;2.67;;
1839;SDS011;920;48.944;9.148;2022-10-17T05:36:10;3.93;;;2.60;;
1839;SDS011;920;48.944;9.148;2022-10-17T05:38:38;4.60;;;2.80;;
1839;SDS011;920;48.944;9.148;2022-10-17T05:41:04;4.93;;;3.27;;
1839;SDS011;920;48.944;9.148;2022-10-17T05:43:31;6.93;;;3.53;;
1839;SDS011;920;48.944;9.148;2022-10-17T05:46:01;6.93;;;2.80;;
1839;SDS011;920;48.944;9.148;2022-10-17T05:48:29;3.80;;;2.90;;
1839;SDS011;920;48.944;9.148;2022-10-17T05:50:56;4.03;;;2.50;;
1839;SDS011;920;48.944;9.148;2022-10-17T05:53:24;4.07;;;2.90;;
1839;SDS011;920;48.944;9.148;2022-10-17T05:55:56;4.87;;;3.20;;
1839;SDS011;920;48.944;9.148;2022-10-17T05:58:23;4.20;;;3.20;;
1839;SDS011;920;48.944;9.148;2022-10-17T06:00:50;4.30;;;2.90;;
1839;SDS011;920;48.944;9.148;2022-10-17T06:03:16;4.80;;;3.37;;
1839;SDS011;920;48.944;9.148;2022-10-17T06:05:43;4.30;;;3.00;;
1839;SDS011;920;48.944;9.148;2022-10-17T06:08:09;3.90;;;3.20;;
1839;SDS011;920;48.944;9.148;2022-10-17T06:10:37;4.60;;;3.30;;
1839;SDS011;920;48.944;9.148;2022-10-17T06:13:05;4.77;;;3.20;;
1839;SDS011;920;48.944;9.148;2022-10-17T06:15:31;5.43;;;2.80;;
1839;SDS011;920;48.944;9.148;2022-10-17T06:17:58;6.80;;;3.47;;
1839;SDS011;920;48.944;9.148;2022-10-17T06:20:24;5.10;;;2.90;;
1839;SDS011;920;48.944;9.148;2022-10-17T06:22:51;3.63;;;2.70;;
1839;SDS011;920;48.944;9.148;2022-10-17T06:25:18;5.63;;;3.53;;
1839;SDS011;920;48.944;9.148;2022-10-17T06:27:44;3.40;;;2.60;;
1839;SDS011;920;48.944;9.148;2022-10-17T06:30:12;8.83;;;2.87;;
1839;SDS011;920;48.944;9.148;2022-10-17T06:32:39;4.33;;;3.30;;
1839;SDS011;920;48.944;9.148;2022-10-17T06:35:06;8.53;;;3.33;;
1839;SDS011;920;48.944;9.148;2022-10-17T06:37:33;6.77;;;2.33;;
1839;SDS011;920;48.944;9.148;2022-10-17T06:40:00;3.97;;;3.00;;
1839;SDS011;920;48.944;9.148;2022-10-17T06:42:27;3.57;;;2.73;;
1839;SDS011;920;48.944;9.148;2022-10-17T06:44:54;3.90;;;2.57;;
1839;SDS011;920;48.944;9.148;2022-10-17T06:47:22;7.90;;;2.70;;
1839;SDS011;920;48.944;9.148;2022-10-17T06:49:48;7.17;;;3.27;;
1839;SDS011;920;48.944;9.148;2022-10-17T06:52:15;3.47;;;2.50;;
1839;SDS011;920;48.944;9.148;2022-10-17T06:54:42;5.27;;;2.93;;
1839;SDS011;920;48.944;9.148;2022-10-17T06:57:09;3.70;;;2.57;;
1839;SDS011;920;48.944;9.148;2022-10-17T06:59:36;9.00;;;4.03;;
1839;SDS011;920;48.944;9.148;2022-10-17T07:02:03;4.93;;;3.63;;
1839;SDS011;920;48.944;9.148;2022-10-17T07:04:31;6.50;;;3.63;;
1839;SDS011;920;48.944;9.148;2022-10-17T07:06:58;6.27;;;4.47;;
1839;SDS011;920;48.944;9.148;2022-10-17T07:09:27;5.60;;;4.20;;
1839;SDS011;920;48.944;9.148;2022-10-17T07:11:54;8.87;;;4.43;;
1839;SDS011;920;48.944;9.148;2022-10-17T07:14:20;4.77;;;3.07;;
1839;SDS011;920;48.944;9.148;2022-10-17T07:16:47;3.27;;;2.93;;
1839;SDS011;920;48.944;9.148;2022-10-17T07:19:14;7.20;;;3.30;;
1839;SDS011;920;48.944;9.148;2022-10-17T07:21:42;6.13;;;3.03;;
1839;SDS011;920;48.944;9.148;2022-10-17T07:24:08;7.40;;;4.27;;
1839;SDS011;920;48.944;9.148;2022-10-17T07:26:35;5.13;;;3.97;;
1839;SDS011;920;48.944;9.148;2022-10-17T07:29:01;6.80;;;3.40;;
1839;SDS011;920;48.944;9.148;2022-10-17T07:31:30;4.50;;;3.50;;
1839;SDS011;920;48.944;9.148;2022-10-17T07:33:57;5.20;;;3.37;;
1839;SDS011;920;48.944;9.148;2022-10-17T07:36:24;4.60;;;4.00;;
1839;SDS011;920;48.944;9.148;2022-10-17T07:38:52;4.53;;;3.80;;
1839;SDS011;920;48.944;9.148;2022-10-17T07:41:19;8.03;;;4.10;;
1839;SDS011;920;48.944;9.148;2022-10-17T07:43:46;4.90;;;3.70;;
1839;SDS011;920;48.944;9.148;2022-10-17T07:46:12;7.63;;;3.83;;
1839;SDS011;920;48.944;9.148;2022-10-17T07:48:39;4.17;;;3.73;;
1839;SDS011;920;48.944;9.148;2022-10-17T07:51:06;5.30;;;3.70;;
1839;SDS011;920;48.944;9.148;2022-10-17T07:53:34;6.90;;;4.30;;
1839;SDS011;920;48.944;9.148;2022-10-17T07:56:04;5.90;;;4.20;;
1839;SDS011;920;48.944;9.148;2022-10-17T07:58:32;5.10;;;3.77;;
1839;SDS011;920;48.944;9.148;2022-10-17T08:00:59;4.57;;;4.07;;
1839;SDS011;920;48.944;9.148;2022-10-17T08:03:26;6.10;;;3.60;;
1839;SDS011;920;48.944;9.148;2022-10-17T08:05:55;5.33;;;3.90;;
1839;SDS011;920;48.944;9.148;2022-10-17T08:08:23;5.33;;;3.87;;
1839;SDS011;920;48.944;9.148;2022-10-17T08:10:49;3.90;;;3.50;;
1839;SDS011;920;48.944;9.148;2022-10-17T08:13:17;5.00;;;3.60;;
1839;SDS011;920;48.944;9.148;2022-10-17T08:15:44;6.67;;;3.50;;
1839;SDS011;920;48.944;9.148;2022-10-17T08:18:12;8.20;;;3.90;;
1839;SDS011;920;48.944;9.148;2022-10-17T08:20:38;4.37;;;3.80;;
1839;SDS011;920;48.944;9.148;2022-10-17T08:23:05;6.00;;;3.57;;
1839;SDS011;920;48.944;9.148;2022-10-17T08:25:32;5.93;;;4.10;;
1839;SDS011;920;48.944;9.148;2022-10-17T08:27:59;4.57;;;3.47;;
1839;SDS011;920;48.944;9.148;2022-10-17T08:30:27;4.90;;;3.47;;
1839;SDS011;920;48.944;9.148;2022-10-17T08:32:55;4.50;;;3.30;;
1839;SDS011;920;48.944;9.148;2022-10-17T08:35:21;5.03;;;3.63;;
1839;SDS011;920;48.944;9.148;2022-10-17T08:37:48;4.37;;;3.40;;
1839;SDS011;920;48.944;9.148;2022-10-17T08:40:16;6.17;;;3.47;;
1839;SDS011;920;48.944;9.148;2022-10-17T08:42:49;6.57;;;3.43;;
1839;SDS011;920;48.944;9.148;2022-10-17T08:45:39;5.87;;;3.70;;
1839;SDS011;920;48.944;9.148;2022-10-17T08:48:11;6.23;;;3.27;;
1839;SDS011;920;48.944;9.148;2022-10-17T08:50:41;4.50;;;3.40;;
1839;SDS011;920;48.944;9.148;2022-10-17T08:53:11;5.27;;;3.30;;
1839;SDS011;920;48.944;9.148;2022-10-17T08:55:43;4.37;;;3.60;;
1839;SDS011;920;48.944;9.148;2022-10-17T08:58:11;6.10;;;2.90;;
1839;SDS011;920;48.944;9.148;2022-10-17T09:00:42;5.83;;;3.20;;
1839;SDS011;920;48.944;9.148;2022-10-17T09:06:17;4.40;;;3.40;;
1839;SDS011;920;48.944;9.148;2022-10-17T09:08:51;4.60;;;2.93;;
1839;SDS011;920;48.944;9.148;2022-10-17T09:11:33;7.37;;;3.30;;
1839;SDS011;920;48.944;9.148;2022-10-17T09:14:09;4.40;;;3.53;;
1839;SDS011;920;48.944;9.148;2022-10-17T09:16:54;3.87;;;3.20;;
1839;SDS011;920;48.944;9.148;2022-10-17T09:19:34;4.80;;;3.60;;
1839;SDS011;920;48.944;9.148;2022-10-17T09:22:04;4.93;;;3.30;;
1839;SDS011;920;48.944;9.148;2022-10-17T09:24:37;5.80;;;3.53;;
1839;SDS011;920;48.944;9.148;2022-10-17T09:27:08;5.00;;;4.03;;
1839;SDS011;920;48.944;9.148;2022-10-17T09:29:44;6.23;;;3.90;;
1839;SDS011;920;48.944;9.148;2022-10-17T09:32:13;5.07;;;3.43;;
1839;SDS011;920;48.944;9.148;2022-10-17T09:34:43;6.83;;;3.57;;
1839;SDS011;920;48.944;9.148;2022-10-17T09:37:10;5.23;;;3.83;;
1839;SDS011;920;48.944;9.148;2022-10-17T09:39:38;4.70;;;3.60;;
1839;SDS011;920;48.944;9.148;2022-10-17T09:42:07;5.33;;;3.13;;
1839;SDS011;920;48.944;9.148;2022-10-17T09:44:38;4.67;;;3.50;;
1839;SDS011;920;48.944;9.148;2022-10-17T09:47:14;7.73;;;3.57;;
1839;SDS011;920;48.944;9.148;2022-10-17T09:49:46;5.20;;;3.63;;
1839;SDS011;920;48.944;9.148;2022-10-17T09:52:14;7.50;;;3.77;;
1839;SDS011;920;48.944;9.148;2022-10-17T09:54:43;4.90;;;3.27;;
1839;SDS011;920;48.944;9.148;2022-10-17T09:57:12;6.23;;;2.60;;
1839;SDS011;920;48.944;9.148;2022-10-17T09:59:41;5.13;;;3.20;;
1839;SDS011;920;48.944;9.148;2022-10-17T10:02:18;5.03;;;2.70;;
1839;SDS011;920;48.944;9.148;2022-10-17T10:04:52;3.53;;;2.60;;
1839;SDS011;920;48.944;9.148;2022-10-17T10:07:20;4.50;;;2.70;;
1839;SDS011;920;48.944;9.148;2022-10-17T10:09:47;3.43;;;2.30;;
1839;SDS011;920;48.944;9.148;2022-10-17T10:12:16;3.27;;;2.47;;
1839;SDS011;920;48.944;9.148;2022-10-17T10:14:44;4.13;;;2.23;;
1839;SDS011;920;48.944;9.148;2022-10-17T10:17:25;3.60;;;2.43;;
1839;SDS011;920;48.944;9.148;2022-10-17T10:19:54;3.17;;;2.10;;
1839;SDS011;920;48.944;9.148;2022-10-17T10:22:21;3.23;;;2.00;;
1839;SDS011;920;48.944;9.148;2022-10-17T10:24:56;5.13;;;2.00;;
1839;SDS011;920;48.944;9.148;2022-10-17T10:27:32;3.97;;;1.93;;
1839;SDS011;920;48.944;9.148;2022-10-17T10:29:59;3.87;;;2.33;;
1839;SDS011;920;48.944;9.148;2022-10-17T10:32:28;4.30;;;1.90;;
1839;SDS011;920;48.944;9.148;2022-10-17T10:34:57;4.40;;;2.43;;
1839;SDS011;920;48.944;9.148;2022-10-17T10:37:26;3.93;;;2.10;;
1839;SDS011;920;48.944;9.148;2022-10-17T10:39:54;3.30;;;2.30;;
1839;SDS011;920;48.944;9.148;2022-10-17T10:42:23;4.73;;;2.03;;
1839;SDS011;920;48.944;9.148;2022-10-17T10:44:52;4.37;;;2.50;;
1839;SDS011;920;48.944;9.148;2022-10-17T10:47:21;4.10;;;2.50;;
1839;SDS011;920;48.944;9.148;2022-10-17T10:49:52;4.13;;;2.40;;
1839;SDS011;920;48.944;9.148;2022-10-17T10:52:31;3.90;;;2.13;;
1839;SDS011;920;48.944;9.148;2022-10-17T10:55:09;3.30;;;2.20;;
1839;SDS011;920;48.944;9.148;2022-10-17T10:57:41;4.90;;;2.90;;
1839;SDS011;920;48.944;9.148;2022-10-17T11:00:11;5.07;;;2.90;;
1839;SDS011;920;48.944;9.148;2022-10-17T11:02:42;5.20;;;2.20;;
1839;SDS011;920;48.944;9.148;2022-10-17T11:05:14;2.70;;;1.90;;
1839;SDS011;920;48.944;9.148;2022-10-17T11:07:45;4.07;;;2.30;;
1839;SDS011;920;48.944;9.148;2022-10-17T11:10:18;3.10;;;2.37;;
1839;SDS011;920;48.944;9.148;2022-10-17T11:12:47;3.67;;;2.90;;
1839;SDS011;920;48.944;9.148;2022-10-17T11:15:18;3.23;;;2.43;;
1839;SDS011;920;48.944;9.148;2022-10-17T11:17:50;6.73;;;2.43;;
1839;SDS011;920;48.944;9.148;2022-10-17T11:20:24;6.50;;;2.87;;
1839;SDS011;920;48.944;9.148;2022-10-17T11:22:57;4.63;;;2.27;;
1839;SDS011;920;48.944;9.148;2022-10-17T11:25:30;3.93;;;2.60;;
1839;SDS011;920;48.944;9.148;2022-10-17T11:27:58;4.87;;;2.77;;
1839;SDS011;920;48.944;9.148;2022-10-17T11:30:26;2.70;;;2.20;;
1839;SDS011;920;48.944;9.148;2022-10-17T11:32:55;4.87;;;2.63;;
1839;SDS011;920;48.944;9.148;2022-10-17T11:35:26;2.53;;;2.10;;
1839;SDS011;920;48.944;9.148;2022-10-17T11:37:56;3.77;;;2.43;;
1839;SDS011;920;48.944;9.148;2022-10-17T11:40:29;3.73;;;2.57;;
1839;SDS011;920;48.944;9.148;2022-10-17T11:42:58;6.27;;;2.80;;
1839;SDS011;920;48.944;9.148;2022-10-17T11:45:26;4.30;;;2.30;;
1839;SDS011;920;48.944;9.148;2022-10-17T11:47:57;4.17;;;2.43;;
1839;SDS011;920;48.944;9.148;2022-10-17T11:50:28;4.17;;;2.70;;
1839;SDS011;920;48.944;9.148;2022-10-17T11:52:58;5.10;;;2.07;;
1839;SDS011;920;48.944;9.148;2022-10-17T11:55:26;5.30;;;2.20;;
1839;SDS011;920;48.944;9.148;2022-10-17T11:58:08;3.60;;;2.20;;
1839;SDS011;920;48.944;9.148;2022-10-17T12:00:50;7.03;;;2.70;;
1839;SDS011;920;48.944;9.148;2022-10-17T12:03:27;3.30;;;2.40;;
1839;SDS011;920;48.944;9.148;2022-10-17T12:06:06;3.67;;;2.50;;
1839;SDS011;920;48.944;9.148;2022-10-17T12:08:38;3.77;;;2.40;;
1839;SDS011;920;48.944;9.148;2022-10-17T12:11:10;3.20;;;2.60;;
1839;SDS011;920;48.944;9.148;2022-10-17T12:13:49;3.17;;;2.40;;
1839;SDS011;920;48.944;9.148;2022-10-17T12:19:23;6.77;;;2.17;;
1839;SDS011;920;48.944;9.148;2022-10-17T12:22:03;7.40;;;2.47;;
1839;SDS011;920;48.944;9.148;2022-10-17T12:24:34;4.63;;;2.60;;
1839;SDS011;920;48.944;9.148;2022-10-17T12:30:02;3.53;;;2.33;;
1839;SDS011;920;48.944;9.148;2022-10-17T12:32:31;4.43;;;2.27;;
1839;SDS011;920;48.944;9.148;2022-10-17T12:34:58;3.17;;;2.40;;
1839;SDS011;920;48.944;9.148;2022-10-17T12:43:35;5.27;;;2.73;;
1839;SDS011;920;48.944;9.148;2022-10-17T12:46:09;4.17;;;2.50;;
1839;SDS011;920;48.944;9.148;2022-10-17T12:48:58;5.00;;;2.33;;
1839;SDS011;920;48.944;9.148;2022-10-17T12:51:26;6.10;;;2.07;;
1839;SDS011;920;48.944;9.148;2022-10-17T12:53:57;9.10;;;2.17;;
1839;SDS011;920;48.944;9.148;2022-10-17T12:56:33;3.77;;;2.50;;
1839;SDS011;920;48.944;9.148;2022-10-17T12:59:05;2.73;;;2.10;;
1839;SDS011;920;48.944;9.148;2022-10-17T13:01:35;3.10;;;2.30;;
1839;SDS011;920;48.944;9.148;2022-10-17T13:04:03;2.50;;;2.10;;
1839;SDS011;920;48.944;9.148;2022-10-17T13:06:31;6.50;;;3.20;;
1839;SDS011;920;48.944;9.148;2022-10-17T13:09:03;3.53;;;2.10;;
1839;SDS011;920;48.944;9.148;2022-10-17T13:11:32;5.10;;;2.03;;
1839;SDS011;920;48.944;9.148;2022-10-17T13:14:01;4.80;;;2.23;;
1839;SDS011;920;48.944;9.148;2022-10-17T13:16:28;5.40;;;2.20;;
1839;SDS011;920;48.944;9.148;2022-10-17T13:18:56;3.33;;;2.20;;
1839;SDS011;920;48.944;9.148;2022-10-17T13:21:23;2.67;;;1.87;;
1839;SDS011;920;48.944;9.148;2022-10-17T13:23:49;5.90;;;2.20;;
1839;SDS011;920;48.944;9.148;2022-10-17T13:26:19;4.80;;;2.40;;
1839;SDS011;920;48.944;9.148;2022-10-17T13:28:59;4.80;;;2.23;;
1839;SDS011;920;48.944;9.148;2022-10-17T13:31:28;3.00;;;2.20;;
1839;SDS011;920;48.944;9.148;2022-10-17T13:33:56;2.63;;;2.13;;
1839;SDS011;920;48.944;9.148;2022-10-17T13:36:24;4.03;;;2.17;;
1839;SDS011;920;48.944;9.148;2022-10-17T13:38:51;5.27;;;2.20;;
1839;SDS011;920;48.944;9.148;2022-10-17T13:41:21;3.97;;;2.53;;
1839;SDS011;920;48.944;9.148;2022-10-17T13:43:50;3.17;;;1.80;;
1839;SDS011;920;48.944;9.148;2022-10-17T13:46:19;6.50;;;2.27;;
1839;SDS011;920;48.944;9.148;2022-10-17T13:48:51;3.90;;;2.30;;
1839;SDS011;920;48.944;9.148;2022-10-17T13:51:17;2.47;;;1.90;;
1839;SDS011;920;48.944;9.148;2022-10-17T13:53:44;4.23;;;2.50;;
1839;SDS011;920;48.944;9.148;2022-10-17T13:56:16;2.80;;;2.37;;
1839;SDS011;920;48.944;9.148;2022-10-17T13:58:46;3.60;;;2.60;;
1839;SDS011;920;48.944;9.148;2022-10-17T14:01:13;4.27;;;2.17;;
1839;SDS011;920;48.944;9.148;2022-10-17T14:03:40;4.10;;;2.13;;
1839;SDS011;920;48.944;9.148;2022-10-17T14:06:11;2.93;;;2.27;;
1839;SDS011;920;48.944;9.148;2022-10-17T14:08:51;5.20;;;2.30;;
1839;SDS011;920;48.944;9.148;2022-10-17T14:11:22;3.90;;;2.27;;
1839;SDS011;920;48.944;9.148;2022-10-17T14:13:56;2.70;;;2.03;;
1839;SDS011;920;48.944;9.148;2022-10-17T14:16:23;2.83;;;2.00;;
1839;SDS011;920;48.944;9.148;2022-10-17T14:18:50;2.50;;;2.10;;
1839;SDS011;920;48.944;9.148;2022-10-17T14:21:19;3.37;;;2.47;;
1839;SDS011;920;48.944;9.148;2022-10-17T14:23:47;4.27;;;2.60;;
1839;SDS011;920;48.944;9.148;2022-10-17T14:26:16;3.13;;;2.00;;
1839;SDS011;920;48.944;9.148;2022-10-17T14:28:46;2.90;;;2.10;;
1839;SDS011;920;48.944;9.148;2022-10-17T14:31:20;3.60;;;2.20;;
1839;SDS011;920;48.944;9.148;2022-10-17T14:33:49;3.30;;;1.90;;
1839;SDS011;920;48.944;9.148;2022-10-17T14:36:17;3.77;;;2.00;;
1839;SDS011;920;48.944;9.148;2022-10-17T14:38:44;3.50;;;2.13;;
1839;SDS011;920;48.944;9.148;2022-10-17T14:41:21;2.40;;;2.10;;
1839;SDS011;920;48.944;9.148;2022-10-17T14:43:54;3.27;;;1.90;;
1839;SDS011;920;48.944;9.148;2022-10-17T14:46:23;4.07;;;2.10;;
1839;SDS011;920;48.944;9.148;2022-10-17T14:48:51;3.83;;;2.87;;
1839;SDS011;920;48.944;9.148;2022-10-17T14:51:19;3.30;;;2.37;;
1839;SDS011;920;48.944;9.148;2022-10-17T14:53:58;3.80;;;2.33;;
1839;SDS011;920;48.944;9.148;2022-10-17T14:56:27;4.07;;;2.20;;
1839;SDS011;920;48.944;9.148;2022-10-17T14:58:59;3.10;;;2.40;;
1839;SDS011;920;48.944;9.148;2022-10-17T15:01:28;3.70;;;2.40;;
1839;SDS011;920;48.944;9.148;2022-10-17T15:03:54;3.80;;;2.30;;
1839;SDS011;920;48.944;9.148;2022-10-17T15:06:22;4.00;;;2.20;;
1839;SDS011;920;48.944;9.148;2022-10-17T15:08:51;3.53;;;2.20;;
1839;SDS011;920;48.944;9.148;2022-10-17T15:11:18;3.40;;;2.20;;
1839;SDS011;920;48.944;9.148;2022-10-17T15:13:45;2.90;;;2.17;;
1839;SDS011;920;48.944;9.148;2022-10-17T15:16:12;6.83;;;2.07;;
1839;SDS011;920;48.944;9.148;2022-10-17T15:18:42;3.43;;;2.47;;
1839;SDS011;920;48.944;9.148;2022-10-17T15:21:10;3.00;;;2.20;;
1839;SDS011;920;48.944;9.148;2022-10-17T15:23:38;3.60;;;2.17;;
1839;SDS011;920;48.944;9.148;2022-10-17T15:26:09;3.67;;;2.07;;
1839;SDS011;920;48.944;9.148;2022-10-17T15:28:38;5.63;;;2.23;;
1839;SDS011;920;48.944;9.148;2022-10-17T15:31:07;4.53;;;2.40;;
1839;SDS011;920;48.944;9.148;2022-10-17T15:33:35;3.47;;;2.20;;
1839;SDS011;920;48.944;9.148;2022-10-17T15:36:03;4.00;;;2.40;;
1839;SDS011;920;48.944;9.148;2022-10-17T15:38:29;2.70;;;2.33;;
1839;SDS011;920;48.944;9.148;2022-10-17T15:40:56;2.80;;;1.97;;
1839;SDS011;920;48.944;9.148;2022-10-17T15:43:23;3.53;;;2.10;;
1839;SDS011;920;48.944;9.148;2022-10-17T15:45:49;3.17;;;2.43;;
1839;SDS011;920;48.944;9.148;2022-10-17T15:48:17;4.73;;;2.00;;
1839;SDS011;920;48.944;9.148;2022-10-17T15:50:45;2.60;;;2.03;;
1839;SDS011;920;48.944;9.148;2022-10-17T15:53:13;4.33;;;2.10;;
1839;SDS011;920;48.944;9.148;2022-10-17T15:55:40;3.00;;;2.07;;
1839;SDS011;920;48.944;9.148;2022-10-17T15:58:08;3.40;;;2.83;;
1839;SDS011;920;48.944;9.148;2022-10-17T16:00:36;3.40;;;2.40;;
1839;SDS011;920;48.944;9.148;2022-10-17T16:03:03;4.00;;;2.47;;
1839;SDS011;920;48.944;9.148;2022-10-17T16:05:29;5.63;;;2.40;;